createdAt,value
2023-03-17T00:01:51.209Z,1.05
2023-03-17T00:04:22.733Z,0.70
2023-03-17T00:06:49.794Z,0.88
2023-03-17T00:09:21.185Z,0.75
2023-03-17T00:11:49.082Z,0.47
2023-03-17T00:14:16.666Z,0.70
2023-03-17T00:16:45.043Z,0.73
2023-03-17T00:19:19.249Z,0.90
2023-03-17T00:21:47.088Z,0.30
2023-03-17T00:24:16.324Z,0.47
2023-03-17T00:26:43.774Z,0.77
2023-03-17T00:29:10.941Z,0.50
2023-03-17T00:31:41.074Z,0.57
2023-03-17T00:34:11.486Z,0.40
2023-03-17T00:36:38.617Z,0.70
2023-03-17T00:39:07.632Z,0.40
2023-03-17T00:41:34.729Z,0.50
2023-03-17T00:44:01.805Z,0.68
2023-03-17T00:46:35.401Z,0.55
2023-03-17T00:49:05.252Z,0.50
2023-03-17T00:51:37.441Z,0.70
2023-03-17T00:54:04.573Z,0.52
2023-03-17T00:56:31.971Z,0.73
2023-03-17T00:58:59.320Z,1.08
2023-03-17T01:01:26.795Z,0.90
2023-03-17T01:03:54.087Z,0.65
2023-03-17T01:06:21.240Z,0.80
2023-03-17T01:08:48.707Z,0.80
2023-03-17T01:11:23.911Z,0.70
2023-03-17T01:13:51.032Z,0.40
2023-03-17T01:16:18.189Z,0.95
2023-03-17T01:18:45.766Z,0.30
2023-03-17T01:21:13.013Z,0.70
2023-03-17T01:23:43.650Z,0.80
2023-03-17T01:26:13.119Z,0.50
2023-03-17T01:28:40.225Z,0.40
2023-03-17T01:31:07.304Z,0.63
2023-03-17T01:33:35.116Z,0.57
2023-03-17T01:36:02.342Z,0.70
2023-03-17T01:38:29.674Z,0.75
2023-03-17T01:40:56.913Z,0.60
2023-03-17T01:43:29.300Z,0.50
2023-03-17T01:46:12.282Z,0.50
2023-03-17T01:48:44.694Z,0.30
2023-03-17T01:51:18.164Z,0.40
2023-03-17T01:53:47.379Z,0.47
2023-03-17T01:56:15.542Z,0.55
2023-03-17T01:58:43.007Z,0.33
2023-03-17T02:01:14.151Z,0.73
2023-03-17T02:03:44.332Z,0.75
2023-03-17T02:06:15.249Z,0.40
2023-03-17T02:08:42.441Z,0.60
2023-03-17T02:11:09.764Z,0.40
2023-03-17T02:13:37.379Z,0.68
2023-03-17T02:16:05.685Z,0.60
2023-03-17T02:18:38.163Z,0.40
2023-03-17T02:21:23.704Z,0.80
2023-03-17T02:23:51.502Z,0.57
2023-03-17T02:26:19.548Z,0.82
2023-03-17T02:28:46.696Z,0.55
2023-03-17T02:31:14.581Z,0.80
2023-03-17T02:33:42.505Z,1.00
2023-03-17T02:36:10.939Z,0.53
2023-03-17T02:38:38.278Z,0.20
2023-03-17T02:41:07.239Z,0.70
2023-03-17T02:43:34.334Z,0.40
2023-03-17T02:46:01.553Z,0.35
2023-03-17T02:48:31.975Z,0.50
2023-03-17T02:51:01.520Z,0.90
2023-03-17T02:53:32.266Z,0.75
2023-03-17T02:55:59.413Z,0.40
2023-03-17T02:58:27.055Z,0.50
2023-03-17T03:00:54.505Z,0.80
2023-03-17T03:03:21.818Z,0.30
2023-03-17T03:05:52.030Z,0.50
2023-03-17T03:08:19.113Z,0.60
2023-03-17T03:10:46.895Z,0.55
2023-03-17T03:13:14.036Z,0.50
2023-03-17T03:15:42.107Z,0.73
2023-03-17T03:18:09.712Z,0.60
2023-03-17T03:20:36.563Z,0.93
2023-03-17T03:23:06.468Z,0.90
2023-03-17T03:25:35.849Z,0.52
2023-03-17T03:28:02.506Z,0.80
2023-03-17T03:30:32.000Z,0.60
2023-03-17T03:33:02.346Z,0.70
2023-03-17T03:35:29.661Z,0.38
2023-03-17T03:37:57.018Z,0.80
2023-03-17T03:40:25.193Z,0.77
2023-03-17T03:42:52.424Z,0.77
2023-03-17T03:45:19.326Z,0.90
2023-03-17T03:47:46.057Z,0.40
2023-03-17T03:50:13.538Z,0.40
2023-03-17T03:52:40.871Z,0.50
2023-03-17T03:55:08.873Z,0.60
2023-03-17T03:57:35.935Z,0.50
2023-03-17T04:00:03.364Z,0.30
2023-03-17T04:02:30.890Z,0.50
2023-03-17T04:04:57.806Z,0.80
2023-03-17T04:07:24.807Z,0.75
2023-03-17T04:09:51.566Z,0.47
2023-03-17T04:12:18.940Z,0.55
2023-03-17T04:14:45.666Z,0.60
2023-03-17T04:17:13.045Z,0.60
2023-03-17T04:19:39.804Z,0.40
2023-03-17T04:22:08.982Z,0.60
2023-03-17T04:24:35.933Z,0.80
2023-03-17T04:27:05.876Z,0.80
2023-03-17T04:29:32.851Z,0.80
2023-03-17T04:31:59.723Z,0.25
2023-03-17T04:34:27.276Z,0.43
2023-03-17T04:36:54.240Z,0.50
2023-03-17T04:39:20.944Z,0.80
2023-03-17T04:41:47.617Z,0.63
2023-03-17T04:44:14.306Z,0.68
2023-03-17T04:46:40.998Z,0.40
2023-03-17T04:49:08.452Z,0.55
2023-03-17T04:51:37.202Z,0.50
2023-03-17T04:54:04.713Z,0.70
2023-03-17T04:56:32.101Z,0.22
2023-03-17T04:58:59.034Z,0.47
2023-03-17T05:01:26.453Z,0.30
2023-03-17T05:03:53.362Z,0.50
2023-03-17T05:06:20.310Z,0.55
2023-03-17T05:08:49.308Z,0.38
2023-03-17T05:11:19.280Z,0.30
2023-03-17T05:13:45.967Z,0.70
2023-03-17T05:16:15.304Z,0.85
2023-03-17T05:18:46.145Z,1.05
2023-03-17T05:21:12.966Z,0.90
2023-03-17T05:23:40.349Z,1.00
2023-03-17T05:26:07.208Z,0.60
2023-03-17T05:28:34.408Z,0.60
2023-03-17T05:31:04.352Z,0.65
2023-03-17T05:33:31.169Z,0.60
2023-03-17T05:35:57.917Z,0.70
2023-03-17T05:38:25.027Z,0.55
2023-03-17T05:40:54.709Z,0.80
2023-03-17T05:43:21.811Z,0.55
2023-03-17T05:45:50.742Z,0.65
2023-03-17T05:48:17.647Z,0.70
2023-03-17T05:50:44.395Z,0.57
2023-03-17T05:53:11.110Z,0.70
2023-03-17T05:55:37.878Z,0.60
2023-03-17T05:58:06.413Z,0.43
2023-03-17T06:00:33.424Z,0.60
2023-03-17T06:03:00.172Z,0.90
2023-03-17T06:05:27.128Z,0.90
2023-03-17T06:07:56.374Z,0.75
2023-03-17T06:10:24.422Z,0.50
2023-03-17T06:12:52.042Z,0.68
2023-03-17T06:15:19.468Z,0.55
2023-03-17T06:17:46.658Z,0.85
2023-03-17T06:20:16.737Z,0.98
2023-03-17T06:23:00.406Z,1.05
2023-03-17T06:25:30.202Z,0.90
2023-03-17T06:27:57.705Z,1.30
2023-03-17T06:30:27.596Z,0.85
2023-03-17T06:32:54.939Z,1.02
2023-03-17T06:35:22.846Z,1.13
2023-03-17T06:37:49.754Z,0.85
2023-03-17T06:40:19.569Z,1.10
2023-03-17T06:42:46.815Z,0.98
2023-03-17T06:45:17.325Z,0.82
2023-03-17T06:47:44.154Z,0.80
2023-03-17T06:50:12.295Z,0.65
2023-03-17T06:52:40.085Z,0.80
2023-03-17T06:55:08.474Z,0.80
2023-03-17T06:57:35.234Z,0.93
2023-03-17T07:00:02.061Z,1.20
2023-03-17T07:02:37.700Z,1.20
2023-03-17T07:05:04.724Z,0.90
2023-03-17T07:07:31.636Z,1.05
2023-03-17T07:09:58.651Z,0.90
2023-03-17T07:12:25.977Z,0.88
2023-03-17T07:14:52.912Z,1.40
2023-03-17T07:17:19.708Z,1.02
2023-03-17T07:19:47.034Z,0.90
2023-03-17T07:22:13.877Z,0.85
2023-03-17T07:24:42.998Z,1.10
2023-03-17T07:27:14.450Z,1.15
2023-03-17T07:29:41.515Z,0.82
2023-03-17T07:32:09.515Z,0.90
2023-03-17T07:34:36.499Z,0.82
2023-03-17T07:37:07.087Z,1.05
2023-03-17T07:39:37.018Z,0.63
2023-03-17T07:42:03.852Z,1.13
2023-03-17T07:44:33.535Z,0.88
2023-03-17T07:47:00.315Z,0.70
2023-03-17T07:49:40.830Z,1.02
2023-03-17T07:52:10.333Z,0.80
2023-03-17T07:54:37.603Z,0.60
2023-03-17T07:57:05.446Z,0.70
2023-03-17T07:59:32.302Z,0.60
2023-03-17T08:02:01.232Z,1.13
2023-03-17T08:04:30.969Z,1.00
2023-03-17T08:06:57.864Z,1.42
2023-03-17T08:09:24.858Z,1.03
2023-03-17T08:11:51.645Z,0.77
2023-03-17T08:14:18.338Z,1.00
2023-03-17T08:16:45.169Z,0.73
2023-03-17T08:19:12.006Z,1.17
2023-03-17T08:21:39.156Z,0.98
2023-03-17T08:24:06.568Z,0.95
2023-03-17T08:26:33.437Z,1.23
2023-03-17T08:29:01.106Z,1.13
2023-03-17T08:31:27.898Z,1.00
2023-03-17T08:33:57.179Z,0.95
2023-03-17T08:36:26.811Z,1.17
2023-03-17T08:38:53.535Z,1.13
2023-03-17T08:41:23.645Z,1.13
2023-03-17T08:43:51.665Z,0.70
2023-03-17T08:46:20.023Z,1.10
2023-03-17T08:48:48.286Z,0.98
2023-03-17T08:51:18.418Z,1.15
2023-03-17T08:53:46.724Z,0.95
2023-03-17T08:56:14.274Z,1.15
2023-03-17T08:58:44.619Z,0.93
2023-03-17T09:01:14.702Z,1.15
2023-03-17T09:03:42.213Z,1.25
2023-03-17T09:06:13.958Z,1.30
2023-03-17T09:08:56.695Z,1.20
2023-03-17T09:11:28.884Z,1.33
2023-03-17T09:14:03.638Z,1.20
2023-03-17T09:16:33.976Z,1.42
2023-03-17T09:19:00.861Z,1.47
2023-03-17T09:21:27.908Z,1.30
2023-03-17T09:23:55.132Z,1.17
2023-03-17T09:26:25.907Z,0.95
2023-03-17T09:28:52.818Z,1.07
2023-03-17T09:31:19.558Z,1.20
2023-03-17T09:33:47.303Z,1.20
2023-03-17T09:36:14.136Z,1.20
2023-03-17T09:38:40.965Z,1.00
2023-03-17T09:41:47.710Z,1.00
2023-03-17T09:44:37.951Z,1.33
2023-03-17T09:47:28.261Z,1.27
2023-03-17T09:50:01.227Z,1.50
2023-03-17T09:52:34.520Z,0.93
2023-03-17T09:55:03.647Z,1.50
2023-03-17T09:57:36.340Z,1.13
2023-03-17T10:00:11.952Z,1.30
2023-03-17T10:02:38.684Z,1.58
2023-03-17T10:05:27.436Z,1.30
2023-03-17T10:08:00.479Z,1.05
2023-03-17T10:10:46.880Z,1.20
2023-03-17T10:13:26.412Z,1.20
2023-03-17T10:16:17.516Z,1.35
2023-03-17T10:18:48.182Z,1.40
2023-03-17T10:21:22.430Z,1.77
2023-03-17T10:23:49.690Z,1.63
2023-03-17T10:26:43.693Z,1.17
2023-03-17T10:29:25.307Z,1.45
2023-03-17T10:31:56.276Z,1.40
2023-03-17T10:34:30.722Z,0.90
2023-03-17T10:37:13.274Z,1.23
2023-03-17T10:39:46.971Z,1.08
2023-03-17T10:42:35.284Z,1.13
2023-03-17T10:45:27.780Z,1.05
2023-03-17T10:47:58.975Z,1.07
2023-03-17T10:50:32.540Z,1.20
2023-03-17T10:53:08.363Z,1.17
2023-03-17T10:55:40.160Z,1.17
2023-03-17T10:58:15.808Z,1.17
2023-03-17T11:01:03.693Z,0.90
2023-03-17T11:03:35.852Z,1.30
2023-03-17T11:06:19.314Z,1.10
2023-03-17T11:08:54.744Z,1.50
2023-03-17T11:11:28.675Z,1.23
2023-03-17T11:14:05.982Z,1.33
2023-03-17T11:16:36.405Z,1.40
2023-03-17T11:19:05.738Z,1.50
2023-03-17T11:22:30.599Z,1.10
2023-03-17T11:25:11.545Z,1.23
2023-03-17T11:27:47.257Z,1.30
2023-03-17T11:30:42.818Z,1.25
2023-03-17T11:33:34.583Z,1.67
2023-03-17T11:36:24.877Z,1.03
2023-03-17T11:39:10.228Z,1.43
2023-03-17T11:42:17.192Z,1.33
2023-03-17T11:45:17.034Z,1.40
2023-03-17T11:48:04.655Z,1.50
2023-03-17T11:50:39.494Z,1.45
2023-03-17T11:53:20.969Z,1.10
2023-03-17T11:55:58.369Z,1.50
2023-03-17T11:58:42.092Z,1.20
2023-03-17T12:01:14.064Z,1.53
2023-03-17T12:04:05.186Z,1.48
2023-03-17T12:06:42.451Z,1.50
2023-03-17T12:09:11.966Z,1.63
2023-03-17T12:11:41.517Z,1.17
2023-03-17T12:14:27.264Z,1.58
2023-03-17T12:17:21.511Z,1.30
2023-03-17T12:20:11.091Z,1.42
2023-03-17T12:23:12.366Z,1.40
2023-03-17T12:25:57.763Z,1.40
2023-03-17T12:28:42.563Z,1.25
2023-03-17T12:31:36.364Z,1.33
2023-03-17T12:34:25.136Z,1.15
2023-03-17T12:36:52.800Z,1.20
2023-03-17T12:39:28.115Z,1.38
2023-03-17T12:41:56.787Z,1.48
2023-03-17T12:45:01.428Z,1.13
2023-03-17T12:47:37.023Z,1.20
2023-03-17T12:50:31.587Z,1.38
2023-03-17T12:53:08.379Z,1.50
2023-03-17T12:55:38.492Z,1.65
2023-03-17T12:58:37.601Z,1.40
2023-03-17T13:01:23.156Z,1.33
2023-03-17T13:04:21.930Z,1.33
2023-03-17T13:07:01.246Z,0.88
2023-03-17T13:09:53.964Z,1.10
2023-03-17T13:12:57.578Z,1.10
2023-03-17T13:15:28.267Z,1.55
2023-03-17T13:18:19.066Z,1.20
2023-03-17T13:20:59.522Z,1.23
2023-03-17T13:23:44.090Z,1.40
2023-03-17T13:26:22.180Z,0.98
2023-03-17T13:28:50.983Z,1.45
2023-03-17T13:31:34.007Z,1.52
2023-03-17T13:34:19.411Z,1.60
2023-03-17T13:36:49.521Z,1.13
2023-03-17T13:39:34.289Z,1.48
2023-03-17T13:42:19.263Z,1.10
2023-03-17T13:45:16.197Z,1.37
2023-03-17T13:47:47.012Z,1.52
2023-03-17T13:50:23.487Z,1.15
2023-03-17T13:52:57.449Z,1.38
2023-03-17T13:55:24.115Z,1.10
2023-03-17T13:57:57.272Z,1.25
2023-03-17T14:00:27.780Z,0.90
2023-03-17T14:03:27.412Z,1.13
2023-03-17T14:05:55.256Z,1.00
2023-03-17T14:08:38.679Z,1.02
2023-03-17T14:11:36.562Z,1.42
2023-03-17T14:14:26.021Z,1.30
2023-03-17T14:17:20.302Z,0.93
2023-03-17T14:20:20.101Z,1.23
2023-03-17T14:22:56.563Z,1.73
2023-03-17T14:25:26.427Z,1.40
2023-03-17T14:27:56.925Z,1.42
2023-03-17T14:30:34.745Z,1.30
2023-03-17T14:33:22.672Z,1.08
2023-03-17T14:35:52.096Z,1.48
2023-03-17T14:38:28.137Z,1.40
2023-03-17T14:41:14.390Z,1.35
2023-03-17T14:43:42.894Z,1.50
2023-03-17T14:46:27.295Z,1.30
2023-03-17T14:49:24.964Z,1.45
2023-03-17T14:51:57.195Z,1.10
2023-03-17T14:54:33.004Z,1.10
2023-03-17T14:57:07.385Z,1.40
2023-03-17T14:59:42.214Z,1.13
2023-03-17T15:02:35.697Z,1.50
2023-03-17T15:05:24.271Z,1.38
2023-03-17T15:07:51.775Z,1.48
2023-03-17T15:10:44.708Z,1.88
2023-03-17T15:13:14.703Z,1.80
2023-03-17T15:15:43.071Z,1.50
2023-03-17T15:18:15.350Z,1.40
2023-03-17T15:20:46.444Z,1.55
2023-03-17T15:23:19.175Z,1.90
2023-03-17T15:25:56.713Z,1.10
2023-03-17T15:28:31.130Z,1.65
2023-03-17T15:31:11.759Z,1.58
2023-03-17T15:33:41.230Z,1.60
2023-03-17T15:36:29.277Z,1.63
2023-03-17T15:39:00.168Z,1.60
2023-03-17T15:41:26.924Z,1.33
2023-03-17T15:43:54.690Z,1.40
2023-03-17T15:46:27.597Z,1.65
2023-03-17T15:48:54.698Z,1.60
2023-03-17T15:51:22.056Z,1.55
2023-03-17T15:53:48.940Z,1.20
2023-03-17T15:56:21.472Z,1.30
2023-03-17T15:58:52.315Z,1.35
2023-03-17T16:01:19.849Z,1.33
2023-03-17T16:03:47.988Z,1.70
2023-03-17T16:06:22.094Z,1.58
2023-03-17T16:08:56.966Z,1.30
2023-03-17T16:11:28.276Z,1.25
2023-03-17T16:13:56.489Z,1.70
2023-03-17T16:16:45.641Z,2.17
2023-03-17T16:19:20.117Z,1.33
2023-03-17T16:21:47.347Z,1.50
2023-03-17T16:24:20.136Z,1.60
2023-03-17T16:26:47.084Z,1.70
2023-03-17T16:29:20.420Z,1.45
2023-03-17T16:31:49.482Z,1.30
2023-03-17T16:34:22.201Z,1.63
2023-03-17T16:36:50.540Z,1.58
2023-03-17T16:39:24.981Z,1.47
2023-03-17T16:41:53.438Z,1.58
2023-03-17T16:44:21.525Z,1.60
2023-03-17T16:46:49.112Z,1.30
2023-03-17T16:49:18.549Z,1.42
2023-03-17T16:51:48.173Z,1.60
2023-03-17T16:54:16.108Z,1.30
2023-03-17T16:56:43.021Z,1.35
2023-03-17T16:59:20.848Z,1.27
2023-03-17T17:01:47.729Z,1.27
2023-03-17T17:04:14.408Z,1.38
2023-03-17T17:06:41.075Z,1.50
2023-03-17T17:09:09.758Z,1.60
2023-03-17T17:11:39.462Z,1.27
2023-03-17T17:14:06.115Z,1.48
2023-03-17T17:16:36.354Z,1.20
2023-03-17T17:19:04.359Z,1.65
2023-03-17T17:21:31.949Z,1.70
2023-03-17T17:24:01.021Z,1.60
2023-03-17T17:26:30.789Z,1.40
2023-03-17T17:28:57.475Z,0.97
2023-03-17T17:31:24.127Z,1.67
2023-03-17T17:33:50.943Z,1.63
2023-03-17T17:36:17.895Z,1.45
2023-03-17T17:38:45.330Z,1.20
2023-03-17T17:41:12.969Z,1.15
2023-03-17T17:43:40.045Z,1.27
2023-03-17T17:46:18.776Z,1.25
2023-03-17T17:48:45.831Z,1.40
2023-03-17T17:51:12.768Z,1.50
2023-03-17T17:53:40.316Z,1.70
2023-03-17T17:56:07.540Z,1.77
2023-03-17T17:58:34.349Z,1.63
2023-03-17T18:01:01.695Z,0.90
2023-03-17T18:03:32.004Z,1.57
2023-03-17T18:05:59.631Z,1.00
2023-03-17T18:08:26.592Z,1.40
2023-03-17T18:10:53.291Z,1.30
2023-03-17T18:13:20.444Z,1.88
2023-03-17T18:15:47.151Z,1.40
2023-03-17T18:18:13.831Z,1.05
2023-03-17T18:20:40.648Z,1.48
2023-03-17T18:23:08.341Z,1.20
2023-03-17T18:25:35.924Z,1.25
2023-03-17T18:28:06.259Z,1.63
2023-03-17T18:30:35.004Z,1.55
2023-03-17T18:33:13.574Z,1.63
2023-03-17T18:35:41.080Z,1.35
2023-03-17T18:38:08.567Z,1.85
2023-03-17T18:40:36.070Z,1.60
2023-03-17T18:43:03.096Z,1.58
2023-03-17T18:45:29.871Z,2.08
2023-03-17T18:47:56.509Z,1.52
2023-03-17T18:50:23.258Z,1.55
2023-03-17T18:52:50.331Z,1.60
2023-03-17T18:55:17.178Z,1.35
2023-03-17T18:57:44.949Z,1.43
2023-03-17T19:00:14.083Z,1.17
2023-03-17T19:02:41.263Z,1.48
2023-03-17T19:05:08.605Z,1.13
2023-03-17T19:07:35.727Z,1.63
2023-03-17T19:10:02.481Z,1.45
2023-03-17T19:12:29.148Z,1.95
2023-03-17T19:14:59.231Z,1.67
2023-03-17T19:17:28.997Z,1.17
2023-03-17T19:19:58.629Z,1.97
2023-03-17T19:22:27.827Z,1.45
2023-03-17T19:24:54.595Z,1.63
2023-03-17T19:27:24.274Z,1.52
2023-03-17T19:29:51.052Z,1.20
2023-03-17T19:32:18.148Z,1.30
2023-03-17T19:34:47.561Z,1.50
2023-03-17T19:37:17.323Z,1.45
2023-03-17T19:39:47.080Z,1.05
2023-03-17T19:42:13.756Z,1.90
2023-03-17T19:44:40.872Z,1.23
2023-03-17T19:47:08.606Z,1.38
2023-03-17T19:49:37.377Z,1.40
2023-03-17T19:52:07.760Z,2.00
2023-03-17T19:54:37.727Z,1.00
2023-03-17T19:57:05.186Z,1.20
2023-03-17T19:59:31.866Z,1.13
2023-03-17T20:01:58.635Z,1.27
2023-03-17T20:04:25.830Z,1.20
2023-03-17T20:06:57.472Z,1.10
2023-03-17T20:09:27.720Z,1.30
2023-03-17T20:11:58.409Z,3.47
2023-03-17T20:14:25.551Z,1.30
2023-03-17T20:16:53.664Z,1.80
2023-03-17T20:19:23.814Z,1.85
2023-03-17T20:21:51.589Z,4.50
2023-03-17T20:24:18.376Z,2.72
2023-03-17T20:26:45.479Z,3.13
2023-03-17T20:29:16.119Z,2.30
2023-03-17T20:31:42.917Z,2.38
2023-03-17T20:34:10.365Z,2.40
2023-03-17T20:36:37.750Z,2.35
2023-03-17T20:39:05.732Z,2.38
2023-03-17T20:41:34.506Z,1.98
2023-03-17T20:44:01.636Z,1.90
2023-03-17T20:46:28.378Z,1.95
2023-03-17T20:49:07.653Z,1.30
2023-03-17T20:51:34.448Z,1.40
2023-03-17T20:54:02.409Z,1.45
2023-03-17T20:56:33.292Z,1.70
2023-03-17T20:59:05.074Z,1.77
2023-03-17T21:01:40.124Z,1.23
2023-03-17T21:04:12.355Z,1.65
2023-03-17T21:06:39.669Z,1.77
2023-03-17T21:09:06.472Z,1.90
2023-03-17T21:11:33.550Z,1.70
2023-03-17T21:14:02.614Z,1.80
2023-03-17T21:16:30.351Z,1.42
2023-03-17T21:18:57.247Z,2.05
2023-03-17T21:21:25.047Z,1.75
2023-03-17T21:23:51.990Z,1.95
2023-03-17T21:26:19.423Z,1.58
2023-03-17T21:28:46.644Z,1.80
2023-03-17T21:31:15.139Z,1.80
2023-03-17T21:33:45.247Z,2.08
2023-03-17T21:36:12.087Z,1.27
2023-03-17T21:38:39.133Z,1.80
2023-03-17T21:41:22.748Z,1.88
2023-03-17T21:43:50.458Z,1.33
2023-03-17T21:46:17.283Z,1.90
2023-03-17T21:48:44.216Z,1.73
2023-03-17T21:51:20.809Z,1.77
2023-03-17T21:53:47.955Z,1.57
2023-03-17T21:56:14.742Z,2.17
2023-03-17T21:58:43.646Z,2.40
2023-03-17T22:01:11.477Z,1.60
2023-03-17T22:03:39.861Z,1.25
2023-03-17T22:06:07.102Z,1.60
2023-03-17T22:08:34.525Z,2.00
2023-03-17T22:11:12.068Z,1.10
2023-03-17T22:13:42.372Z,1.85
2023-03-17T22:16:13.145Z,2.00
2023-03-17T22:18:40.576Z,1.45
2023-03-17T22:21:08.312Z,1.80
2023-03-17T22:23:41.003Z,1.92
2023-03-17T22:26:19.305Z,1.47
2023-03-17T22:28:48.182Z,1.33
2023-03-17T22:31:23.141Z,1.80
2023-03-17T22:33:53.262Z,1.50
2023-03-17T22:36:19.998Z,1.63
2023-03-17T22:38:46.971Z,1.65
2023-03-17T22:41:16.534Z,1.15
2023-03-17T22:43:44.046Z,1.70
2023-03-17T22:46:11.502Z,1.95
2023-03-17T22:48:39.820Z,1.85
2023-03-17T22:51:08.706Z,2.37
2023-03-17T22:53:39.556Z,1.50
2023-03-17T22:56:07.048Z,2.40
2023-03-17T22:58:34.530Z,1.97
2023-03-17T23:01:06.375Z,1.38
2023-03-17T23:03:33.987Z,1.80
2023-03-17T23:06:03.882Z,1.90
2023-03-17T23:08:34.960Z,1.63
2023-03-17T23:11:07.054Z,1.80
2023-03-17T23:13:35.189Z,1.67
2023-03-17T23:16:02.540Z,1.63
2023-03-17T23:18:29.247Z,1.70
2023-03-17T23:20:56.200Z,1.58
2023-03-17T23:23:23.014Z,1.45
2023-03-17T23:25:49.683Z,1.38
2023-03-17T23:28:20.038Z,1.80
2023-03-17T23:30:49.698Z,1.80
2023-03-17T23:33:17.550Z,1.77
2023-03-17T23:35:49.720Z,1.35
2023-03-17T23:38:21.330Z,1.33
2023-03-17T23:40:49.221Z,1.92
2023-03-17T23:43:19.525Z,1.60
2023-03-17T23:45:46.477Z,1.30
2023-03-17T23:48:13.239Z,1.60
2023-03-17T23:50:41.471Z,1.45
2023-03-17T23:53:11.598Z,1.83
2023-03-17T23:55:38.765Z,1.35
2023-03-17T23:58:08.593Z,1.77
